Country
Station

 

Weather  for  Villahermosa  -  Mexico    Mexico

  
23 °C (73 °F)
    
 
 

Current METAR for Villahermosa is :

MMVA 170934Z 09006KT 4SM SKC 23/23 A3001 RMK HZ RTS

 

This is a report for Villahermosa - Mexico.
 
The report was made 2 hours and 39 minutes ago, at 09:34 UTC .
The wind was blowing at a speed of 3.1 meters per second (6.9 miles per hour) from east (090°).
 
The temperature was 23 °C (73 °F), with a dew-point at 23 °C (73 °F).
The temperature felt like 20 °C (68 °F).
 
The atmospheric pressure was 1016 hPa (30.01 inHg).
The relative humidity was 100.0%.
 
The sky was clear.
 
The overall visibility was 6.4 kilometers (4.0 miles).
 

 
 
 
 

Country :   A   B   C   D   E   F   G   H   I   J   K   L   M   N   O   P   Q   R   S   T   U   V   W   Y   Z

 

Site Info  |  Disclaimer  |  Credits  |  Privacy
Contact us  |  Add to favorites
© 2013-2018 METARs - All rights reserved